Alzada, Montana
Current Conditions -  °F | °C
As of 12:55 PM on Tuesday 21 Oct 2014 (Local Time) from KW43 Reporting Station
Clear Clear  
Wind Chill: 23°   Ceiling: Unl
Heat Index: 23°   Visibility: 10mi
Dew Point:   Wind: 18mph
Humidity: 29%   Direction: 210°SSW
Pressure: 29.78"   Gusts: 23mph
Location:  45.03°N, 104.42°W
Report Text: KW43 211855Z AUTO 21016G20KT 10SM CLR 23/04 A2978 RMK AO2
Loading
Personal Weather Stations






























Interactive Weather Map
Tropical Storm Tracking
New forecast layout! Learn more

10-Day Weather Forecast

Advertisements
Track Severe Weather on mobile